sensor_id;sensor_type;location;lat;lon;timestamp;temperature;humidity
36002;DHT22;22070;50.922;5.430;2024-02-21T00:01:44;9.90;99.90
36002;DHT22;22070;50.922;5.430;2024-02-21T00:04:10;10.00;99.90
36002;DHT22;22070;50.922;5.430;2024-02-21T00:06:36;9.90;99.90
36002;DHT22;22070;50.922;5.430;2024-02-21T00:09:01;9.90;99.90
36002;DHT22;22070;50.922;5.430;2024-02-21T00:11:28;9.90;99.90
36002;DHT22;22070;50.922;5.430;2024-02-21T00:13:53;10.00;99.90
36002;DHT22;22070;50.922;5.430;2024-02-21T00:16:19;9.90;99.90
36002;DHT22;22070;50.922;5.430;2024-02-21T00:18:45;9.90;99.90
36002;DHT22;22070;50.922;5.430;2024-02-21T00:21:11;9.90;99.90
36002;DHT22;22070;50.922;5.430;2024-02-21T00:23:46;10.00;99.90
36002;DHT22;22070;50.922;5.430;2024-02-21T00:26:12;10.00;99.90
36002;DHT22;22070;50.922;5.430;2024-02-21T00:28:38;10.00;99.90
36002;DHT22;22070;50.922;5.430;2024-02-21T00:31:04;9.80;99.90
36002;DHT22;22070;50.922;5.430;2024-02-21T00:33:30;9.80;99.90
36002;DHT22;22070;50.922;5.430;2024-02-21T00:35:56;9.90;99.90
36002;DHT22;22070;50.922;5.430;2024-02-21T00:38:22;9.90;99.90
36002;DHT22;22070;50.922;5.430;2024-02-21T00:40:47;9.90;99.90
36002;DHT22;22070;50.922;5.430;2024-02-21T00:43:13;9.90;99.90
36002;DHT22;22070;50.922;5.430;2024-02-21T00:45:39;10.00;99.90
36002;DHT22;22070;50.922;5.430;2024-02-21T00:48:05;10.00;99.90
36002;DHT22;22070;50.922;5.430;2024-02-21T00:50:30;9.80;99.90
36002;DHT22;22070;50.922;5.430;2024-02-21T00:52:56;9.80;99.90
36002;DHT22;22070;50.922;5.430;2024-02-21T00:55:22;9.90;99.90
36002;DHT22;22070;50.922;5.430;2024-02-21T00:57:47;10.00;99.90
36002;DHT22;22070;50.922;5.430;2024-02-21T01:00:13;10.00;99.90
36002;DHT22;22070;50.922;5.430;2024-02-21T01:02:39;10.00;99.90
36002;DHT22;22070;50.922;5.430;2024-02-21T01:05:05;9.90;99.90
36002;DHT22;22070;50.922;5.430;2024-02-21T01:07:31;10.00;99.90
36002;DHT22;22070;50.922;5.430;2024-02-21T01:09:56;10.00;99.90
36002;DHT22;22070;50.922;5.430;2024-02-21T01:12:22;9.90;99.90
36002;DHT22;22070;50.922;5.430;2024-02-21T01:14:49;9.80;99.90
36002;DHT22;22070;50.922;5.430;2024-02-21T01:17:15;9.90;99.90
36002;DHT22;22070;50.922;5.430;2024-02-21T01:19:40;9.80;99.90
36002;DHT22;22070;50.922;5.430;2024-02-21T01:22:06;9.70;99.90
36002;DHT22;22070;50.922;5.430;2024-02-21T01:24:32;9.80;99.90
36002;DHT22;22070;50.922;5.430;2024-02-21T01:26:57;9.70;99.90
36002;DHT22;22070;50.922;5.430;2024-02-21T01:29:23;9.70;99.90
36002;DHT22;22070;50.922;5.430;2024-02-21T01:31:48;9.80;99.90
36002;DHT22;22070;50.922;5.430;2024-02-21T01:34:14;9.90;99.90
36002;DHT22;22070;50.922;5.430;2024-02-21T01:36:40;9.90;99.90
36002;DHT22;22070;50.922;5.430;2024-02-21T01:39:06;9.80;99.90
36002;DHT22;22070;50.922;5.430;2024-02-21T01:41:32;9.80;99.90
36002;DHT22;22070;50.922;5.430;2024-02-21T01:43:58;9.80;99.90
36002;DHT22;22070;50.922;5.430;2024-02-21T01:46:24;9.80;99.90
36002;DHT22;22070;50.922;5.430;2024-02-21T01:48:56;9.80;99.90
36002;DHT22;22070;50.922;5.430;2024-02-21T01:51:22;9.80;99.90
36002;DHT22;22070;50.922;5.430;2024-02-21T01:53:48;9.90;99.90
36002;DHT22;22070;50.922;5.430;2024-02-21T01:56:15;9.90;99.90
36002;DHT22;22070;50.922;5.430;2024-02-21T01:58:42;9.90;99.90
36002;DHT22;22070;50.922;5.430;2024-02-21T02:01:10;9.90;99.90
36002;DHT22;22070;50.922;5.430;2024-02-21T02:03:35;10.00;99.90
36002;DHT22;22070;50.922;5.430;2024-02-21T02:06:02;9.90;99.90
36002;DHT22;22070;50.922;5.430;2024-02-21T02:08:28;9.80;99.90
36002;DHT22;22070;50.922;5.430;2024-02-21T02:10:53;9.60;99.90
36002;DHT22;22070;50.922;5.430;2024-02-21T02:13:19;9.60;99.90
36002;DHT22;22070;50.922;5.430;2024-02-21T02:15:49;9.70;99.90
36002;DHT22;22070;50.922;5.430;2024-02-21T02:18:16;9.70;99.90
36002;DHT22;22070;50.922;5.430;2024-02-21T02:20:43;9.70;99.90
36002;DHT22;22070;50.922;5.430;2024-02-21T02:23:19;9.70;99.90
36002;DHT22;22070;50.922;5.430;2024-02-21T02:25:46;9.80;99.90
36002;DHT22;22070;50.922;5.430;2024-02-21T02:28:14;9.80;99.90
36002;DHT22;22070;50.922;5.430;2024-02-21T02:30:40;9.90;99.90
36002;DHT22;22070;50.922;5.430;2024-02-21T02:33:05;9.80;99.90
36002;DHT22;22070;50.922;5.430;2024-02-21T02:35:32;9.80;99.90
36002;DHT22;22070;50.922;5.430;2024-02-21T02:37:58;9.90;99.90
36002;DHT22;22070;50.922;5.430;2024-02-21T02:40:24;9.80;99.90
36002;DHT22;22070;50.922;5.430;2024-02-21T02:42:50;9.70;99.90
36002;DHT22;22070;50.922;5.430;2024-02-21T02:45:17;9.80;99.90
36002;DHT22;22070;50.922;5.430;2024-02-21T02:47:46;9.70;99.90
36002;DHT22;22070;50.922;5.430;2024-02-21T02:50:12;9.80;99.90
36002;DHT22;22070;50.922;5.430;2024-02-21T02:52:38;9.70;99.90
36002;DHT22;22070;50.922;5.430;2024-02-21T02:55:04;9.70;99.90
36002;DHT22;22070;50.922;5.430;2024-02-21T02:57:30;9.60;99.90
36002;DHT22;22070;50.922;5.430;2024-02-21T02:59:56;9.60;99.90
36002;DHT22;22070;50.922;5.430;2024-02-21T03:02:22;9.70;99.90
36002;DHT22;22070;50.922;5.430;2024-02-21T03:04:48;9.60;99.90
36002;DHT22;22070;50.922;5.430;2024-02-21T03:07:14;9.60;99.90
36002;DHT22;22070;50.922;5.430;2024-02-21T03:09:40;9.60;99.90
36002;DHT22;22070;50.922;5.430;2024-02-21T03:12:06;9.70;99.90
36002;DHT22;22070;50.922;5.430;2024-02-21T03:14:32;9.70;99.90
36002;DHT22;22070;50.922;5.430;2024-02-21T03:16:58;9.70;99.90
36002;DHT22;22070;50.922;5.430;2024-02-21T03:19:25;9.70;99.90
36002;DHT22;22070;50.922;5.430;2024-02-21T03:21:51;9.60;99.90
36002;DHT22;22070;50.922;5.430;2024-02-21T03:24:18;9.60;99.90
36002;DHT22;22070;50.922;5.430;2024-02-21T03:26:44;9.70;99.90
36002;DHT22;22070;50.922;5.430;2024-02-21T03:29:10;9.60;99.90
36002;DHT22;22070;50.922;5.430;2024-02-21T03:31:36;9.70;99.90
36002;DHT22;22070;50.922;5.430;2024-02-21T03:34:02;9.60;99.90
36002;DHT22;22070;50.922;5.430;2024-02-21T03:36:28;9.70;99.90
36002;DHT22;22070;50.922;5.430;2024-02-21T03:38:54;9.80;99.90
36002;DHT22;22070;50.922;5.430;2024-02-21T03:41:21;9.70;99.90
36002;DHT22;22070;50.922;5.430;2024-02-21T03:43:47;9.70;99.90
36002;DHT22;22070;50.922;5.430;2024-02-21T03:46:13;9.60;99.90
36002;DHT22;22070;50.922;5.430;2024-02-21T03:48:39;9.60;99.90
36002;DHT22;22070;50.922;5.430;2024-02-21T03:51:05;9.60;99.90
36002;DHT22;22070;50.922;5.430;2024-02-21T03:53:31;9.70;99.90
36002;DHT22;22070;50.922;5.430;2024-02-21T03:55:56;9.60;99.90
36002;DHT22;22070;50.922;5.430;2024-02-21T03:58:25;9.60;99.90
36002;DHT22;22070;50.922;5.430;2024-02-21T04:00:50;9.60;99.90
36002;DHT22;22070;50.922;5.430;2024-02-21T04:03:17;9.60;99.90
36002;DHT22;22070;50.922;5.430;2024-02-21T04:05:43;9.80;99.90
36002;DHT22;22070;50.922;5.430;2024-02-21T04:08:08;9.80;99.90
36002;DHT22;22070;50.922;5.430;2024-02-21T04:10:34;9.80;99.90
36002;DHT22;22070;50.922;5.430;2024-02-21T04:12:59;9.80;99.90
36002;DHT22;22070;50.922;5.430;2024-02-21T04:15:25;9.80;99.90
36002;DHT22;22070;50.922;5.430;2024-02-21T04:17:51;9.80;99.90
36002;DHT22;22070;50.922;5.430;2024-02-21T04:20:18;9.70;99.90
36002;DHT22;22070;50.922;5.430;2024-02-21T04:22:44;9.70;99.90
36002;DHT22;22070;50.922;5.430;2024-02-21T04:25:12;9.70;99.90
36002;DHT22;22070;50.922;5.430;2024-02-21T04:27:39;9.60;99.90
36002;DHT22;22070;50.922;5.430;2024-02-21T04:30:06;9.70;99.90
36002;DHT22;22070;50.922;5.430;2024-02-21T04:32:32;9.60;99.90
36002;DHT22;22070;50.922;5.430;2024-02-21T04:34:58;9.60;99.90
36002;DHT22;22070;50.922;5.430;2024-02-21T04:37:23;9.70;99.90
36002;DHT22;22070;50.922;5.430;2024-02-21T04:39:50;9.70;99.90
36002;DHT22;22070;50.922;5.430;2024-02-21T04:42:17;9.60;99.90
36002;DHT22;22070;50.922;5.430;2024-02-21T04:44:43;9.60;99.90
36002;DHT22;22070;50.922;5.430;2024-02-21T04:47:09;9.60;99.90
36002;DHT22;22070;50.922;5.430;2024-02-21T04:49:34;9.60;99.90
36002;DHT22;22070;50.922;5.430;2024-02-21T04:52:00;9.60;99.90
36002;DHT22;22070;50.922;5.430;2024-02-21T04:54:26;9.60;99.90
36002;DHT22;22070;50.922;5.430;2024-02-21T04:56:52;9.60;99.90
36002;DHT22;22070;50.922;5.430;2024-02-21T04:59:18;9.60;99.90
36002;DHT22;22070;50.922;5.430;2024-02-21T05:01:43;9.60;99.90
36002;DHT22;22070;50.922;5.430;2024-02-21T05:04:09;9.60;99.90
36002;DHT22;22070;50.922;5.430;2024-02-21T05:06:41;9.50;99.90
36002;DHT22;22070;50.922;5.430;2024-02-21T05:09:09;9.50;99.90
36002;DHT22;22070;50.922;5.430;2024-02-21T05:11:38;9.50;99.90
36002;DHT22;22070;50.922;5.430;2024-02-21T05:14:03;9.50;99.90
36002;DHT22;22070;50.922;5.430;2024-02-21T05:16:30;9.60;99.90
36002;DHT22;22070;50.922;5.430;2024-02-21T05:18:56;9.50;99.90
36002;DHT22;22070;50.922;5.430;2024-02-21T05:21:25;9.50;99.90
36002;DHT22;22070;50.922;5.430;2024-02-21T05:23:51;9.40;99.90
36002;DHT22;22070;50.922;5.430;2024-02-21T05:26:24;9.50;99.90
36002;DHT22;22070;50.922;5.430;2024-02-21T05:28:50;9.50;99.90
36002;DHT22;22070;50.922;5.430;2024-02-21T05:31:18;9.60;99.90
36002;DHT22;22070;50.922;5.430;2024-02-21T05:33:44;9.60;99.90
36002;DHT22;22070;50.922;5.430;2024-02-21T05:36:10;9.60;99.90
36002;DHT22;22070;50.922;5.430;2024-02-21T05:38:36;9.60;99.90
36002;DHT22;22070;50.922;5.430;2024-02-21T05:41:02;9.50;99.90
36002;DHT22;22070;50.922;5.430;2024-02-21T05:43:28;9.50;99.90
36002;DHT22;22070;50.922;5.430;2024-02-21T05:45:53;9.40;99.90
36002;DHT22;22070;50.922;5.430;2024-02-21T05:48:20;9.50;99.90
36002;DHT22;22070;50.922;5.430;2024-02-21T05:50:45;9.50;99.90
36002;DHT22;22070;50.922;5.430;2024-02-21T05:53:11;9.50;99.90
36002;DHT22;22070;50.922;5.430;2024-02-21T05:55:39;9.50;99.90
36002;DHT22;22070;50.922;5.430;2024-02-21T05:58:05;9.30;99.90
36002;DHT22;22070;50.922;5.430;2024-02-21T06:00:32;9.30;99.90
36002;DHT22;22070;50.922;5.430;2024-02-21T06:02:57;9.30;99.90
36002;DHT22;22070;50.922;5.430;2024-02-21T06:05:23;9.30;99.90
36002;DHT22;22070;50.922;5.430;2024-02-21T06:07:49;9.40;99.90
36002;DHT22;22070;50.922;5.430;2024-02-21T06:10:14;9.40;99.90
36002;DHT22;22070;50.922;5.430;2024-02-21T06:12:40;9.40;99.90
36002;DHT22;22070;50.922;5.430;2024-02-21T06:15:06;9.30;99.90
36002;DHT22;22070;50.922;5.430;2024-02-21T06:17:32;9.20;99.90
36002;DHT22;22070;50.922;5.430;2024-02-21T06:19:57;9.30;99.90
36002;DHT22;22070;50.922;5.430;2024-02-21T06:22:23;9.30;99.90
36002;DHT22;22070;50.922;5.430;2024-02-21T06:24:49;9.30;99.90
36002;DHT22;22070;50.922;5.430;2024-02-21T06:27:15;9.40;99.90
36002;DHT22;22070;50.922;5.430;2024-02-21T06:29:41;9.40;99.90
36002;DHT22;22070;50.922;5.430;2024-02-21T06:32:07;9.50;99.90
36002;DHT22;22070;50.922;5.430;2024-02-21T06:34:33;9.50;99.90
36002;DHT22;22070;50.922;5.430;2024-02-21T06:36:58;9.50;99.90
36002;DHT22;22070;50.922;5.430;2024-02-21T06:39:24;9.40;99.90
36002;DHT22;22070;50.922;5.430;2024-02-21T06:41:50;9.50;99.90
36002;DHT22;22070;50.922;5.430;2024-02-21T06:44:17;9.40;99.90
36002;DHT22;22070;50.922;5.430;2024-02-21T06:46:43;9.40;99.90
36002;DHT22;22070;50.922;5.430;2024-02-21T06:49:08;9.30;99.90
36002;DHT22;22070;50.922;5.430;2024-02-21T06:51:34;9.30;99.90
36002;DHT22;22070;50.922;5.430;2024-02-21T06:54:00;9.30;99.90
36002;DHT22;22070;50.922;5.430;2024-02-21T06:56:26;9.30;99.90
36002;DHT22;22070;50.922;5.430;2024-02-21T06:58:55;9.30;99.90
36002;DHT22;22070;50.922;5.430;2024-02-21T07:01:21;9.20;99.90
36002;DHT22;22070;50.922;5.430;2024-02-21T07:03:47;9.30;99.90
36002;DHT22;22070;50.922;5.430;2024-02-21T07:06:13;9.20;99.90
36002;DHT22;22070;50.922;5.430;2024-02-21T07:08:39;9.20;99.90
36002;DHT22;22070;50.922;5.430;2024-02-21T07:11:04;9.20;99.90
36002;DHT22;22070;50.922;5.430;2024-02-21T07:13:30;9.20;99.90
36002;DHT22;22070;50.922;5.430;2024-02-21T07:15:56;9.10;99.90
36002;DHT22;22070;50.922;5.430;2024-02-21T07:18:22;9.10;99.90
36002;DHT22;22070;50.922;5.430;2024-02-21T07:20:47;9.10;99.90
36002;DHT22;22070;50.922;5.430;2024-02-21T07:23:13;9.10;99.90
36002;DHT22;22070;50.922;5.430;2024-02-21T07:25:39;9.10;99.90
36002;DHT22;22070;50.922;5.430;2024-02-21T07:28:05;9.10;99.90
36002;DHT22;22070;50.922;5.430;2024-02-21T07:30:31;9.20;99.90
36002;DHT22;22070;50.922;5.430;2024-02-21T07:32:58;9.10;99.90
36002;DHT22;22070;50.922;5.430;2024-02-21T07:35:24;9.10;99.90
36002;DHT22;22070;50.922;5.430;2024-02-21T07:37:50;9.10;99.90
36002;DHT22;22070;50.922;5.430;2024-02-21T07:40:17;9.10;99.90
36002;DHT22;22070;50.922;5.430;2024-02-21T07:42:43;9.10;99.90
36002;DHT22;22070;50.922;5.430;2024-02-21T07:45:09;9.10;99.90
36002;DHT22;22070;50.922;5.430;2024-02-21T07:47:36;9.20;99.90
36002;DHT22;22070;50.922;5.430;2024-02-21T07:50:02;9.20;99.90
36002;DHT22;22070;50.922;5.430;2024-02-21T07:52:28;9.20;99.90
36002;DHT22;22070;50.922;5.430;2024-02-21T07:54:54;9.20;99.90
36002;DHT22;22070;50.922;5.430;2024-02-21T07:57:19;9.20;99.90
36002;DHT22;22070;50.922;5.430;2024-02-21T07:59:45;9.20;99.90
36002;DHT22;22070;50.922;5.430;2024-02-21T08:02:14;9.30;99.90
36002;DHT22;22070;50.922;5.430;2024-02-21T08:04:39;9.40;99.90
36002;DHT22;22070;50.922;5.430;2024-02-21T08:07:05;9.40;99.90
36002;DHT22;22070;50.922;5.430;2024-02-21T08:09:30;9.40;99.90
36002;DHT22;22070;50.922;5.430;2024-02-21T08:11:56;9.40;99.90
36002;DHT22;22070;50.922;5.430;2024-02-21T08:14:22;9.40;99.90
36002;DHT22;22070;50.922;5.430;2024-02-21T08:16:50;9.40;99.90
36002;DHT22;22070;50.922;5.430;2024-02-21T08:19:16;9.30;99.90
36002;DHT22;22070;50.922;5.430;2024-02-21T08:21:42;9.30;99.90
36002;DHT22;22070;50.922;5.430;2024-02-21T08:24:08;9.40;99.90
36002;DHT22;22070;50.922;5.430;2024-02-21T08:26:34;9.50;99.90
36002;DHT22;22070;50.922;5.430;2024-02-21T08:29:01;9.50;99.90
36002;DHT22;22070;50.922;5.430;2024-02-21T08:31:27;9.50;99.90
36002;DHT22;22070;50.922;5.430;2024-02-21T08:34:00;9.60;99.90
36002;DHT22;22070;50.922;5.430;2024-02-21T08:36:38;9.70;99.90
36002;DHT22;22070;50.922;5.430;2024-02-21T08:39:04;9.60;99.90
36002;DHT22;22070;50.922;5.430;2024-02-21T08:41:35;9.50;99.90
36002;DHT22;22070;50.922;5.430;2024-02-21T08:44:00;9.60;99.90
36002;DHT22;22070;50.922;5.430;2024-02-21T08:46:26;9.60;99.90
36002;DHT22;22070;50.922;5.430;2024-02-21T08:48:53;9.60;99.90
36002;DHT22;22070;50.922;5.430;2024-02-21T08:51:19;9.70;99.90
36002;DHT22;22070;50.922;5.430;2024-02-21T08:53:45;9.80;99.90
36002;DHT22;22070;50.922;5.430;2024-02-21T08:56:11;9.90;99.90
36002;DHT22;22070;50.922;5.430;2024-02-21T08:58:37;9.80;99.90
36002;DHT22;22070;50.922;5.430;2024-02-21T09:01:03;9.80;99.90
36002;DHT22;22070;50.922;5.430;2024-02-21T09:03:33;9.80;99.90
36002;DHT22;22070;50.922;5.430;2024-02-21T09:05:59;9.90;99.90
36002;DHT22;22070;50.922;5.430;2024-02-21T09:08:25;9.90;99.90
36002;DHT22;22070;50.922;5.430;2024-02-21T09:10:51;9.90;99.90
36002;DHT22;22070;50.922;5.430;2024-02-21T09:13:17;9.90;99.90
36002;DHT22;22070;50.922;5.430;2024-02-21T09:15:43;10.00;99.90
36002;DHT22;22070;50.922;5.430;2024-02-21T09:18:08;10.00;99.90
36002;DHT22;22070;50.922;5.430;2024-02-21T09:20:34;10.00;99.90
36002;DHT22;22070;50.922;5.430;2024-02-21T09:23:00;10.00;99.90
36002;DHT22;22070;50.922;5.430;2024-02-21T09:25:25;10.10;99.90
36002;DHT22;22070;50.922;5.430;2024-02-21T09:27:53;10.10;99.90
36002;DHT22;22070;50.922;5.430;2024-02-21T09:30:19;10.20;99.90
36002;DHT22;22070;50.922;5.430;2024-02-21T09:32:45;10.20;99.90
36002;DHT22;22070;50.922;5.430;2024-02-21T09:35:10;10.20;99.90
36002;DHT22;22070;50.922;5.430;2024-02-21T09:37:38;10.30;99.90
36002;DHT22;22070;50.922;5.430;2024-02-21T09:40:05;10.20;99.90
36002;DHT22;22070;50.922;5.430;2024-02-21T09:45:00;10.30;99.90
36002;DHT22;22070;50.922;5.430;2024-02-21T09:47:37;10.30;99.90
36002;DHT22;22070;50.922;5.430;2024-02-21T09:50:05;10.30;99.90
36002;DHT22;22070;50.922;5.430;2024-02-21T09:52:32;10.30;99.90
36002;DHT22;22070;50.922;5.430;2024-02-21T09:55:01;10.40;99.90
36002;DHT22;22070;50.922;5.430;2024-02-21T09:57:27;10.40;99.90
36002;DHT22;22070;50.922;5.430;2024-02-21T09:59:55;10.50;99.90
36002;DHT22;22070;50.922;5.430;2024-02-21T10:02:22;10.50;99.90
36002;DHT22;22070;50.922;5.430;2024-02-21T10:04:47;10.50;99.90
36002;DHT22;22070;50.922;5.430;2024-02-21T10:07:13;10.50;99.90
36002;DHT22;22070;50.922;5.430;2024-02-21T10:09:39;10.50;99.90
36002;DHT22;22070;50.922;5.430;2024-02-21T10:12:10;10.50;99.90
36002;DHT22;22070;50.922;5.430;2024-02-21T10:14:36;10.50;99.90
36002;DHT22;22070;50.922;5.430;2024-02-21T10:17:02;10.60;99.90
36002;DHT22;22070;50.922;5.430;2024-02-21T10:19:29;10.70;99.90
36002;DHT22;22070;50.922;5.430;2024-02-21T10:22:15;10.70;99.90
36002;DHT22;22070;50.922;5.430;2024-02-21T10:24:41;10.70;99.90
36002;DHT22;22070;50.922;5.430;2024-02-21T10:27:08;10.80;99.90
36002;DHT22;22070;50.922;5.430;2024-02-21T10:29:35;10.90;99.90
36002;DHT22;22070;50.922;5.430;2024-02-21T10:34:34;11.10;99.90
36002;DHT22;22070;50.922;5.430;2024-02-21T10:37:03;11.10;99.90
36002;DHT22;22070;50.922;5.430;2024-02-21T10:39:34;11.10;99.90
36002;DHT22;22070;50.922;5.430;2024-02-21T10:42:02;11.20;99.90
36002;DHT22;22070;50.922;5.430;2024-02-21T10:44:31;11.20;99.90
36002;DHT22;22070;50.922;5.430;2024-02-21T10:46:57;11.20;99.90
36002;DHT22;22070;50.922;5.430;2024-02-21T10:49:27;11.20;99.90
36002;DHT22;22070;50.922;5.430;2024-02-21T10:56:56;11.30;99.90
36002;DHT22;22070;50.922;5.430;2024-02-21T10:59:23;11.30;99.90
36002;DHT22;22070;50.922;5.430;2024-02-21T11:01:49;11.20;99.90
36002;DHT22;22070;50.922;5.430;2024-02-21T11:04:15;11.10;99.90
36002;DHT22;22070;50.922;5.430;2024-02-21T11:06:42;11.20;99.90
36002;DHT22;22070;50.922;5.430;2024-02-21T11:09:10;11.30;99.90
36002;DHT22;22070;50.922;5.430;2024-02-21T11:11:44;11.30;99.90
36002;DHT22;22070;50.922;5.430;2024-02-21T11:14:20;11.30;99.90
36002;DHT22;22070;50.922;5.430;2024-02-21T11:16:47;11.50;99.90
36002;DHT22;22070;50.922;5.430;2024-02-21T11:19:20;11.40;99.90
36002;DHT22;22070;50.922;5.430;2024-02-21T11:21:47;11.40;99.90
36002;DHT22;22070;50.922;5.430;2024-02-21T11:24:34;11.30;99.90
36002;DHT22;22070;50.922;5.430;2024-02-21T11:27:14;11.40;99.90
36002;DHT22;22070;50.922;5.430;2024-02-21T11:29:43;11.60;99.90
36002;DHT22;22070;50.922;5.430;2024-02-21T11:32:15;11.60;99.90
36002;DHT22;22070;50.922;5.430;2024-02-21T11:34:41;11.60;99.90
36002;DHT22;22070;50.922;5.430;2024-02-21T11:37:13;11.60;99.90
36002;DHT22;22070;50.922;5.430;2024-02-21T11:39:42;11.60;99.90
36002;DHT22;22070;50.922;5.430;2024-02-21T11:42:08;11.60;99.90
36002;DHT22;22070;50.922;5.430;2024-02-21T11:44:35;11.70;99.90
36002;DHT22;22070;50.922;5.430;2024-02-21T11:47:06;11.70;99.90
36002;DHT22;22070;50.922;5.430;2024-02-21T11:49:37;11.70;99.90
36002;DHT22;22070;50.922;5.430;2024-02-21T11:52:06;11.60;99.90
36002;DHT22;22070;50.922;5.430;2024-02-21T11:54:33;11.60;99.90
36002;DHT22;22070;50.922;5.430;2024-02-21T11:56:59;11.50;99.90
36002;DHT22;22070;50.922;5.430;2024-02-21T11:59:25;11.60;99.90
36002;DHT22;22070;50.922;5.430;2024-02-21T12:01:52;11.70;99.90
36002;DHT22;22070;50.922;5.430;2024-02-21T12:04:21;11.50;99.90
36002;DHT22;22070;50.922;5.430;2024-02-21T12:06:49;11.60;99.90
36002;DHT22;22070;50.922;5.430;2024-02-21T12:09:16;11.80;99.90
36002;DHT22;22070;50.922;5.430;2024-02-21T12:11:42;11.90;99.90
36002;DHT22;22070;50.922;5.430;2024-02-21T12:14:08;11.90;99.90
36002;DHT22;22070;50.922;5.430;2024-02-21T12:16:34;11.90;99.90
36002;DHT22;22070;50.922;5.430;2024-02-21T12:19:02;12.00;99.90
36002;DHT22;22070;50.922;5.430;2024-02-21T12:21:33;12.00;99.90
36002;DHT22;22070;50.922;5.430;2024-02-21T12:24:12;12.10;99.90
36002;DHT22;22070;50.922;5.430;2024-02-21T12:26:38;12.10;99.90
36002;DHT22;22070;50.922;5.430;2024-02-21T12:29:04;12.10;99.90
36002;DHT22;22070;50.922;5.430;2024-02-21T12:31:30;12.00;99.90
36002;DHT22;22070;50.922;5.430;2024-02-21T12:33:55;12.10;99.90
36002;DHT22;22070;50.922;5.430;2024-02-21T12:36:21;12.10;99.90
36002;DHT22;22070;50.922;5.430;2024-02-21T12:38:47;11.90;99.90
36002;DHT22;22070;50.922;5.430;2024-02-21T12:41:14;12.00;99.90
36002;DHT22;22070;50.922;5.430;2024-02-21T12:43:40;12.10;99.90
36002;DHT22;22070;50.922;5.430;2024-02-21T12:46:06;12.20;99.90
36002;DHT22;22070;50.922;5.430;2024-02-21T12:48:33;12.10;99.90
36002;DHT22;22070;50.922;5.430;2024-02-21T12:50:59;12.00;99.90
36002;DHT22;22070;50.922;5.430;2024-02-21T12:53:25;11.90;99.90
36002;DHT22;22070;50.922;5.430;2024-02-21T12:55:51;11.90;99.90
36002;DHT22;22070;50.922;5.430;2024-02-21T12:58:16;11.90;99.90
36002;DHT22;22070;50.922;5.430;2024-02-21T13:00:42;12.10;99.90
36002;DHT22;22070;50.922;5.430;2024-02-21T13:03:08;12.10;99.90
36002;DHT22;22070;50.922;5.430;2024-02-21T13:05:37;12.00;99.90
36002;DHT22;22070;50.922;5.430;2024-02-21T13:08:05;12.00;99.90
36002;DHT22;22070;50.922;5.430;2024-02-21T13:10:31;11.90;99.90
36002;DHT22;22070;50.922;5.430;2024-02-21T13:12:58;11.80;99.90
36002;DHT22;22070;50.922;5.430;2024-02-21T13:15:24;11.80;99.90
36002;DHT22;22070;50.922;5.430;2024-02-21T13:17:50;11.90;99.90
36002;DHT22;22070;50.922;5.430;2024-02-21T13:20:15;12.00;99.90
36002;DHT22;22070;50.922;5.430;2024-02-21T13:22:41;12.00;99.90
36002;DHT22;22070;50.922;5.430;2024-02-21T13:25:07;12.00;99.90
36002;DHT22;22070;50.922;5.430;2024-02-21T13:27:33;12.00;99.90
36002;DHT22;22070;50.922;5.430;2024-02-21T13:29:59;12.00;99.90
36002;DHT22;22070;50.922;5.430;2024-02-21T13:32:27;12.00;99.90
36002;DHT22;22070;50.922;5.430;2024-02-21T13:34:52;12.10;99.90
36002;DHT22;22070;50.922;5.430;2024-02-21T13:37:18;12.00;99.90
36002;DHT22;22070;50.922;5.430;2024-02-21T13:39:44;12.00;99.90
36002;DHT22;22070;50.922;5.430;2024-02-21T13:42:09;11.90;99.90
36002;DHT22;22070;50.922;5.430;2024-02-21T13:44:35;11.90;99.90
36002;DHT22;22070;50.922;5.430;2024-02-21T13:47:02;11.90;99.90
36002;DHT22;22070;50.922;5.430;2024-02-21T13:49:27;11.80;99.90
36002;DHT22;22070;50.922;5.430;2024-02-21T13:51:54;11.90;99.90
36002;DHT22;22070;50.922;5.430;2024-02-21T13:54:19;11.80;99.90
36002;DHT22;22070;50.922;5.430;2024-02-21T13:56:46;11.90;99.90
36002;DHT22;22070;50.922;5.430;2024-02-21T13:59:12;11.70;99.90
36002;DHT22;22070;50.922;5.430;2024-02-21T14:01:41;11.80;99.90
36002;DHT22;22070;50.922;5.430;2024-02-21T14:04:06;11.90;99.90
36002;DHT22;22070;50.922;5.430;2024-02-21T14:06:32;12.00;99.90
36002;DHT22;22070;50.922;5.430;2024-02-21T14:08:58;11.90;99.90
36002;DHT22;22070;50.922;5.430;2024-02-21T14:11:23;12.00;99.90
36002;DHT22;22070;50.922;5.430;2024-02-21T14:13:49;12.10;99.90
36002;DHT22;22070;50.922;5.430;2024-02-21T14:16:15;12.10;99.90
36002;DHT22;22070;50.922;5.430;2024-02-21T14:18:41;12.20;99.90
36002;DHT22;22070;50.922;5.430;2024-02-21T14:21:10;12.20;99.90
36002;DHT22;22070;50.922;5.430;2024-02-21T14:23:37;12.10;99.90
36002;DHT22;22070;50.922;5.430;2024-02-21T14:26:03;12.10;99.90
36002;DHT22;22070;50.922;5.430;2024-02-21T14:28:29;12.20;99.90
36002;DHT22;22070;50.922;5.430;2024-02-21T14:30:54;12.10;99.90
36002;DHT22;22070;50.922;5.430;2024-02-21T14:33:23;12.20;99.90
36002;DHT22;22070;50.922;5.430;2024-02-21T14:35:49;12.20;99.90
36002;DHT22;22070;50.922;5.430;2024-02-21T14:38:15;12.20;99.90
36002;DHT22;22070;50.922;5.430;2024-02-21T14:40:41;12.20;99.90
36002;DHT22;22070;50.922;5.430;2024-02-21T14:43:06;12.10;99.90
36002;DHT22;22070;50.922;5.430;2024-02-21T14:45:32;12.10;99.90
36002;DHT22;22070;50.922;5.430;2024-02-21T14:47:57;11.90;99.90
36002;DHT22;22070;50.922;5.430;2024-02-21T14:50:23;11.80;99.90
36002;DHT22;22070;50.922;5.430;2024-02-21T14:52:49;11.80;99.90
36002;DHT22;22070;50.922;5.430;2024-02-21T14:55:15;11.70;99.90
36002;DHT22;22070;50.922;5.430;2024-02-21T14:57:40;11.70;99.90
36002;DHT22;22070;50.922;5.430;2024-02-21T15:00:08;11.70;99.90
36002;DHT22;22070;50.922;5.430;2024-02-21T15:02:36;11.60;99.90
36002;DHT22;22070;50.922;5.430;2024-02-21T15:05:02;11.60;99.90
36002;DHT22;22070;50.922;5.430;2024-02-21T15:07:29;11.50;99.90
36002;DHT22;22070;50.922;5.430;2024-02-21T15:09:54;11.50;99.90
36002;DHT22;22070;50.922;5.430;2024-02-21T15:12:20;11.40;99.90
36002;DHT22;22070;50.922;5.430;2024-02-21T15:14:47;11.40;99.90
36002;DHT22;22070;50.922;5.430;2024-02-21T15:17:13;11.40;99.90
36002;DHT22;22070;50.922;5.430;2024-02-21T15:19:39;11.20;99.90
36002;DHT22;22070;50.922;5.430;2024-02-21T15:22:11;11.20;99.90
36002;DHT22;22070;50.922;5.430;2024-02-21T15:24:38;11.10;99.90
36002;DHT22;22070;50.922;5.430;2024-02-21T15:27:04;11.10;99.90
36002;DHT22;22070;50.922;5.430;2024-02-21T15:29:30;11.20;99.90
36002;DHT22;22070;50.922;5.430;2024-02-21T15:31:55;11.10;99.90
36002;DHT22;22070;50.922;5.430;2024-02-21T15:34:21;11.10;99.90
36002;DHT22;22070;50.922;5.430;2024-02-21T15:36:47;11.10;99.90
36002;DHT22;22070;50.922;5.430;2024-02-21T15:39:13;11.00;99.90
36002;DHT22;22070;50.922;5.430;2024-02-21T15:41:39;10.90;99.90
36002;DHT22;22070;50.922;5.430;2024-02-21T15:44:06;10.90;99.90
36002;DHT22;22070;50.922;5.430;2024-02-21T15:46:32;10.90;99.90